Urucuia, Brazil
Current Conditions -  °F | °C
As of 4:00 PM on Tuesday 21 Oct 2014 (Local Time) from SBMK Reporting Station
Clear Clear  
Wind Chill: 77°   Ceiling: Unl
Heat Index: 79°   Visibility: 6mi
Dew Point: 64°   Wind: 6mph
Humidity: 65%   Direction: 170°S
Pressure: 29.97"   Gusts: NA
Location:  16.13°S, 45.74°W
Report Text: SBMK 211800Z 17005KT 140V200 CAVOK 25/18 Q1015
Loading
Personal Weather Stations






























Interactive Weather Map
Tropical Storm Tracking
New forecast layout! Learn more

10-Day Weather Forecast

Advertisements
Track Severe Weather on mobile